Flight Track Log - Related Links

Times and Time Zones

All times are in EDT time to prevent confusion due to time zone crossing. See the ASQ4209 flight status page for this flight to view local times or setup timezone preferences in your user account.

Time Position Orientation Groundspeed Altitude Reporting Facility
EDT Latitude Longitude Course Direction KTS MPH feet Rate Location/Type
Wed 11:04:43 PM 29.9617 -95.3436 90° East 135 155 600  Level Houston Center
Wed 11:05:14 PM 29.9472 -95.3236 130° Southeast 168 193 1,400 1,091 Climbing Houston Center
Wed 11:06:11 PM 29.9197 -95.2736 122° Southeast 196 226 2,200 1,475 Climbing Houston Center
Wed 11:07:00 PM 29.9834 -94.9257 90° East  Level FlightAware Approximate
Wed 11:07:12 PM 29.8875 -95.2017 117° Southeast 245 282 4,300  Level Houston Center
Wed 11:08:00 PM 29.9834 -94.7899 90° East  Level FlightAware Approximate
Wed 11:08:13 PM 29.8700 -95.1200 104° East 258 297 6,300  Level Houston Center
Wed 11:09:00 PM 29.9833 -94.6540 90° East  Level FlightAware Approximate
Wed 11:09:14 PM 29.8517 -95.0369 104° East 265 305 8,200  Level Houston Center
Wed 11:10:15 PM 29.8603 -94.9511 83° East 277 319 9,900 1,426 Climbing Houston Center
Wed 11:11:16 PM 29.8794 -94.8617 76° East 286 329 11,100 1,131 Climbing Houston Center
Wed 11:12:17 PM 29.9008 -94.7639 76° East 305 351 12,200 1,082 Climbing Houston Center
Wed 11:13:18 PM 29.9233 -94.6583 76° East 330 380 13,300 1,180 Climbing Houston Center
Wed 11:14:19 PM 29.9458 -94.5514 76° East 341 392 14,600 1,180 Climbing Houston Center
Wed 11:15:20 PM 29.9689 -94.4306 78° East 347 399 15,700 1,082 Climbing Houston Center
Wed 11:16:21 PM 29.9925 -94.3200 76° East 353 406 16,800 984 Climbing Houston Center
Wed 11:17:22 PM 30.0092 -94.2053 80° East 361 415 17,700 1,131 Climbing Houston Center
Wed 11:18:23 PM 30.0231 -94.0875 82° East 367 422 19,100 1,279 Climbing Houston Center
Wed 11:19:24 PM 30.0381 -93.9708 82° East 369 425 20,300 1,279 Climbing Houston Center
Wed 11:20:25 PM 30.0514 -93.8531 83° East 371 427 21,700 1,328 Climbing Houston Center
Wed 11:21:26 PM 30.0667 -93.7344 82° East 374 430 23,000 1,317 Climbing Houston Center
Wed 11:22:28 PM 30.0833 -93.5922 82° East 377 434 24,400 1,317 Climbing Houston Center
Wed 11:23:29 PM 30.0964 -93.4733 83° East 379 436 25,700 1,230 Climbing Houston Center
Wed 11:24:30 PM 30.1106 -93.3533 82° East 383 441 26,900 1,131 Climbing Houston Center
Wed 11:25:31 PM 30.1253 -93.2361 82° East 375 432 28,000 1,082 Climbing Houston Center
Wed 11:26:32 PM 30.1403 -93.1156 82° East 382 440 29,100 1,082 Climbing Houston Center
Wed 11:27:33 PM 30.1906 -93.0142 60° Northeast 370 426 30,200 1,041 Climbing Houston Center
Wed 11:28:33 PM 30.2442 -92.9164 58° Northeast 364 419 31,200 992 Climbing Houston Center
Wed 11:29:34 PM 30.2983 -92.8169 58° Northeast 366 421 32,200 1,033 Climbing Houston Center
Wed 11:30:35 PM 30.3522 -92.7181 58° Northeast 366 421 33,300 984 Climbing Houston Center
Wed 11:31:36 PM 30.4156 -92.6014 58° Northeast 360 414 34,200 738 Climbing Houston Center
Wed 11:32:37 PM 30.4692 -92.5019 58° Northeast 365 420 34,800 541 Climbing Houston Center
Wed 11:33:38 PM 30.5150 -92.4158 58° Northeast 364 419 35,300 590 Climbing Houston Center
Wed 11:34:39 PM 30.5803 -92.2956 58° Northeast 369 425 36,000 639 Climbing Houston Center
Wed 11:35:40 PM 30.6344 -92.1958 58° Northeast 369 425 36,600 492 Climbing Houston Center
Wed 11:36:41 PM 30.6872 -92.0967 58° Northeast 365 420 37,000 197 Climbing Houston Center
Wed 11:37:42 PM 30.7400 -91.9967 58° Northeast 365 420 37,000  Level Houston Center
Wed 11:38:43 PM 30.7964 -91.8922 58° Northeast 378 435 37,000  Level Houston Center
Wed 11:39:44 PM 30.8542 -91.7861 58° Northeast 389 448 37,000  Level Houston Center
Wed 11:40:44 PM 30.9131 -91.6742 58° Northeast 404 465 37,000  Level Houston Center
Wed 11:41:45 PM 30.9744 -91.5600 58° Northeast 417 480 37,000  Level Houston Center
Wed 11:42:46 PM 31.0369 -91.4403 59° Northeast 431 496 37,000  Level Houston Center
Wed 11:43:47 PM 31.1039 -91.3142 58° Northeast 443 510 37,000  Level Houston Center
Wed 11:44:48 PM 31.1692 -91.1886 59° Northeast 451 519 37,000  Level Houston Center
Wed 11:45:48 PM 31.2364 -91.0614 58° Northeast 457 526 37,000  Level Houston Center
Wed 11:46:49 PM 31.3025 -90.9333 59° Northeast 459 528 37,000  Level Houston Center
Wed 11:47:50 PM 31.3706 -90.8025 59° Northeast 468 539 37,000  Level Houston Center
Wed 11:48:51 PM 31.4378 -90.6703 59° Northeast 471 542 37,000  Level Houston Center
Wed 11:49:51 PM 31.5081 -90.5383 58° Northeast 476 548 37,000  Level Houston Center
Wed 11:50:52 PM 31.5906 -90.3756 59° Northeast 481 554 37,000  Level Houston Center
Wed 11:51:53 PM 31.6600 -90.2411 59° Northeast 482 555 37,000  Level Houston Center
Wed 11:52:54 PM 31.7286 -90.1033 60° Northeast 487 560 37,000  Level Houston Center
Wed 11:53:54 PM 31.8111 -89.9778 52° Northeast 486 559 37,000  Level Houston Center
Wed 11:54:55 PM 31.8992 -89.8589 49° Northeast 483 556 37,000  Level Houston Center
Wed 11:55:32 PM 31.9544 -89.7794 51° Northeast 482 555 37,000  Level Memphis Center
Wed 11:56:32 PM 32.0436 -89.6589 49° Northeast 482 555 37,000  Level Memphis Center
Wed 11:57:32 PM 32.1306 -89.5356 50° Northeast 482 555 37,000  Level Memphis Center
Wed 11:58:32 PM 32.2153 -89.4144 50° Northeast 477 549 37,000  Level Memphis Center
Wed 11:59:32 PM 32.3000 -89.3006 49° Northeast 477 549 37,000  Level Memphis Center
Thu 12:00:32 AM 32.3825 -89.1839 50° Northeast 472 543 37,000  Level Memphis Center
Thu 12:01:32 AM 32.4647 -89.0694 50° Northeast 461 531 37,000  Level Memphis Center
Thu 12:02:32 AM 32.5469 -88.9525 50° Northeast 461 531 37,000  Level Memphis Center
Thu 12:03:32 AM 32.6250 -88.8403 50° Northeast 456 525 37,000  Level Memphis Center
Thu 12:04:32 AM 32.7050 -88.7253 50° Northeast 456 525 37,000  Level Memphis Center
Thu 12:05:32 AM 32.7789 -88.6228 49° Northeast 451 519 37,000  Level Memphis Center
Thu 12:06:32 AM 32.8586 -88.5097 50° Northeast 451 519 37,000  Level Memphis Center
Thu 12:07:32 AM 32.9381 -88.3944 51° Northeast 451 519 37,000  Level Memphis Center
Thu 12:08:32 AM 33.0178 -88.2761 51° Northeast 457 526 37,000  Level Memphis Center
Thu 12:10:20 AM 33.1717 -88.0492 51° Northeast 462 532 37,000  Level Atlanta Center
Thu 12:11:20 AM 33.2592 -87.9267 49° Northeast 468 539 37,000  Level Atlanta Center
Thu 12:12:20 AM 33.3422 -87.8011 52° Northeast 473 544 37,000  Level Atlanta Center
Thu 12:13:20 AM 33.4275 -87.6753 51° Northeast 479 551 37,000  Level Atlanta Center
Thu 12:14:20 AM 33.5061 -87.5589 51° Northeast 488 562 37,000  Level Atlanta Center
Thu 12:15:20 AM 33.5908 -87.4353 51° Northeast 488 562 37,000  Level Atlanta Center
Thu 12:16:20 AM 33.6758 -87.3064 52° Northeast 488 562 37,000  Level Atlanta Center
Thu 12:17:20 AM 33.7625 -87.1797 51° Northeast 488 562 37,000  Level Atlanta Center
Thu 12:18:20 AM 33.8494 -87.0478 52° Northeast 488 562 37,000  Level Atlanta Center
Thu 12:19:20 AM 33.9339 -86.9181 52° Northeast 488 562 37,000  Level Atlanta Center
Thu 12:20:20 AM 34.0181 -86.7931 51° Northeast 483 556 37,000  Level Atlanta Center
Thu 12:21:20 AM 34.1044 -86.6656 51° Northeast 483 556 37,000 -150 Level Atlanta Center
Thu 12:22:20 AM 34.1883 -86.5400 51° Northeast 483 556 36,700 -1,000 Descending Atlanta Center
Thu 12:23:20 AM 34.2725 -86.4067 53° Northeast 483 556 35,000 -1,700 Descending Atlanta Center
Thu 12:24:20 AM 34.3542 -86.2781 52° Northeast 483 556 33,300 -1,550 Descending Atlanta Center
Thu 12:25:20 AM 34.4400 -86.1469 52° Northeast 483 556 31,900 -1,350 Descending Atlanta Center
Thu 12:26:20 AM 34.5214 -86.0203 52° Northeast 483 556 30,600 -1,300 Descending Atlanta Center
Thu 12:27:20 AM 34.6025 -85.8936 52° Northeast 483 556 29,300 -1,250 Descending Atlanta Center
Thu 12:28:20 AM 34.6839 -85.7617 53° Northeast 483 556 28,100 -1,300 Descending Atlanta Center
Thu 12:29:20 AM 34.7647 -85.6342 52° Northeast 483 556 26,700 -1,350 Descending Atlanta Center
Thu 12:30:20 AM 34.8436 -85.5067 53° Northeast 478 550 25,400 -1,300 Descending Atlanta Center
Thu 12:31:20 AM 34.9244 -85.3789 52° Northeast 478 550 24,100 -700 Descending Atlanta Center
Thu 12:32:20 AM 35.0008 -85.2583 52° Northeast 471 542 24,000 -50 Descending Atlanta Center
Thu 12:33:20 AM 35.0686 -85.1478 53° Northeast 437 503 24,000  Level Atlanta Center
Thu 12:34:20 AM 35.1300 -85.0444 54° Northeast 397 457 24,000 -6,500 Level Atlanta Center
Thu 12:35:20 AM 35.1975 -84.9411 51° Northeast 383 441 11,000 -2,700 Descending Atlanta Center
Thu 12:36:20 AM 35.2650 -84.8297 53° Northeast 390 449 18,600 2,350 Climbing Atlanta Center
Thu 12:37:20 AM 35.3367 -84.7161 52° Northeast 402 463 15,700 -2,550 Descending Atlanta Center
Thu 12:38:20 AM 35.4019 -84.6069 54° Northeast 407 468 13,500 -2,150 Descending Atlanta Center
Thu 12:39:20 AM 35.4692 -84.4900 55° Northeast 394 453 11,400 -1,750 Descending Atlanta Center
Thu 12:40:20 AM 35.5278 -84.4011 51° Northeast 363 418 10,000 -1,650 Descending Atlanta Center
Thu 12:41:20 AM 35.5822 -84.3222 50° Northeast 327 376 8,100 -2,050 Descending Atlanta Center
Thu 12:42:20 AM 35.6347 -84.2381 52° Northeast 309 356 5,900 -1,950 Descending Atlanta Center
Thu 12:43:20 AM 35.6828 -84.1614 52° Northeast 291 335 4,200 -1,500 Descending Atlanta Center
Thu 12:44:20 AM 35.7308 -84.0975 47° Northeast 272 313 2,900 -1,150 Descending Atlanta Center
Thu 12:45:20 AM 35.7683 -84.0542 43° Northeast 226 260 1,900 -900 Descending Atlanta Center
Thu 12:46:20 AM 35.7997 -84.0158 45° Northeast 184 212 1,100 -450 Descending Atlanta Center
Thu 12:47:20 AM 35.8331 -83.9694 48° Northeast 177 204 1,000 -100 Descending Atlanta Center

Login

Don't have an account? Register now (free) for customized features, flight alerts, and more!